Time;durP1;ratioP1;P1;durP2;ratioP2;P2;SDS_P1;SDS_P2;PMS_P1;PMS_P2;Temp;Humidity;BMP_temperature;BMP_pressure;BME280_temperature;BME280_humidity;BME280_pressure;Samples;Min_cycle;Max_cycle;Signal;HPM_P1;HPM_P2
2021/09/02 00:01:00;;;;;;;3.83;2.58;;;14.20;57.90;;;;;;5012788;28;20307;-43
2021/09/02 00:03:30;;;;;;;4.13;2.40;;;14.20;57.90;;;;;;5013724;28;20224;-56
2021/09/02 00:06:01;;;;;;;3.17;2.40;;;14.20;57.90;;;;;;5013830;28;20232;-45
2021/09/02 00:08:31;;;;;;;3.85;2.33;;;14.20;57.90;;;;;;5012884;28;20321;-53
2021/09/02 00:11:01;;;;;;;3.53;2.20;;;14.30;57.90;;;;;;5013872;28;20228;-44
2021/09/02 00:13:32;;;;;;;3.83;2.35;;;14.30;57.90;;;;;;5013087;28;20224;-45
2021/09/02 00:16:04;;;;;;;4.35;2.35;;;14.30;57.90;;;;;;5013338;28;20229;-44
2021/09/02 00:18:35;;;;;;;3.17;2.13;;;14.30;57.90;;;;;;5012933;28;20263;-43
2021/09/02 00:21:05;;;;;;;2.45;2.03;;;14.30;58.00;;;;;;5012483;28;20221;-46
2021/09/02 00:23:36;;;;;;;3.30;2.33;;;14.40;58.10;;;;;;5012058;28;20197;-48
2021/09/02 00:26:06;;;;;;;3.58;2.00;;;14.40;58.20;;;;;;5011264;28;20729;-55
2021/09/02 00:28:36;;;;;;;4.78;2.10;;;14.40;58.30;;;;;;5013377;28;20252;-50
2021/09/02 00:31:09;;;;;;;3.05;1.85;;;14.50;58.30;;;;;;5012413;28;20228;-53
2021/09/02 00:33:39;;;;;;;3.28;1.88;;;14.50;58.30;;;;;;5013437;28;20695;-48
2021/09/02 00:36:10;;;;;;;5.20;2.53;;;14.50;58.20;;;;;;5012777;28;20243;-43
2021/09/02 00:38:40;;;;;;;2.83;1.98;;;14.60;58.10;;;;;;5012401;28;20260;-45
2021/09/02 00:41:10;;;;;;;3.10;1.88;;;14.60;58.10;;;;;;5012947;28;20264;-48
2021/09/02 00:43:41;;;;;;;3.22;2.38;;;14.60;58.10;;;;;;5011940;28;20232;-47
2021/09/02 00:46:14;;;;;;;2.63;1.88;;;14.60;58.10;;;;;;5013208;28;20236;-55
2021/09/02 00:48:44;;;;;;;3.50;2.03;;;14.60;58.10;;;;;;5012368;28;20256;-43
2021/09/02 00:51:15;;;;;;;4.10;2.22;;;14.70;58.10;;;;;;5012500;28;20279;-42
2021/09/02 00:53:46;;;;;;;3.05;1.73;;;14.70;58.10;;;;;;5011619;28;20284;-43
2021/09/02 00:56:17;;;;;;;3.30;2.20;;;14.70;58.10;;;;;;5012707;28;20446;-46
2021/09/02 00:58:48;;;;;;;4.32;2.22;;;14.70;58.00;;;;;;5013149;28;20688;-59
2021/09/02 01:01:21;;;;;;;3.40;2.15;;;14.80;58.20;;;;;;5013274;28;20263;-46
2021/09/02 01:03:51;;;;;;;3.75;2.28;;;14.80;58.30;;;;;;5012765;28;20201;-52
2021/09/02 01:06:22;;;;;;;2.45;2.03;;;14.80;58.30;;;;;;5013065;28;20235;-53
2021/09/02 01:08:52;;;;;;;2.40;1.77;;;14.80;58.20;;;;;;5012064;28;20251;-51
2021/09/02 01:11:23;;;;;;;3.00;2.00;;;14.90;58.20;;;;;;5012053;28;20231;-49
2021/09/02 01:13:53;;;;;;;3.28;2.00;;;14.90;58.10;;;;;;5012161;28;20288;-59
2021/09/02 01:19:05;;;;;;;3.20;2.13;;;14.90;58.00;;;;;;4971764;28;20229;-49
2021/09/02 01:21:36;;;;;;;2.83;1.80;;;15.00;58.00;;;;;;4973105;28;20261;-52
2021/09/02 01:24:09;;;;;;;2.25;1.90;;;15.00;58.00;;;;;;4973141;28;20234;-55
2021/09/02 01:26:39;;;;;;;3.92;2.20;;;15.00;58.00;;;;;;4972699;28;20237;-53
2021/09/02 01:29:11;;;;;;;2.15;1.75;;;15.10;58.10;;;;;;4972979;28;20257;-58
2021/09/02 01:31:42;;;;;;;3.83;1.80;;;15.10;58.00;;;;;;4973340;28;20202;-53
2021/09/02 01:34:12;;;;;;;3.15;1.98;;;15.10;58.10;;;;;;4972216;28;20199;-47
2021/09/02 01:36:43;;;;;;;2.50;1.80;;;15.10;58.00;;;;;;4972230;28;20726;-60
2021/09/02 01:39:19;;;;;;;2.60;1.75;;;15.20;58.00;;;;;;4971826;28;20781;-52
2021/09/02 01:41:50;;;;;;;2.25;2.05;;;15.20;58.00;;;;;;4962160;28;20241;-61
2021/09/02 01:44:20;;;;;;;2.72;1.77;;;15.20;58.00;;;;;;4954024;28;20202;-57
2021/09/02 01:46:51;;;;;;;2.75;1.80;;;15.20;57.90;;;;;;4954122;28;20238;-56
2021/09/02 01:49:21;;;;;;;3.58;2.28;;;15.30;58.00;;;;;;4953590;28;20219;-51
2021/09/02 01:51:51;;;;;;;2.80;2.10;;;15.30;57.90;;;;;;4953177;28;20285;-48
2021/09/02 01:54:24;;;;;;;2.92;1.85;;;15.30;57.90;;;;;;4953792;28;20238;-44
2021/09/02 01:56:54;;;;;;;2.55;1.60;;;15.30;57.90;;;;;;4953896;28;20234;-51
2021/09/02 01:59:25;;;;;;;1.88;1.70;;;15.40;57.90;;;;;;4956202;28;20211;-49
2021/09/02 02:01:55;;;;;;;3.15;1.80;;;15.40;57.90;;;;;;4953384;28;20269;-58
2021/09/02 02:04:26;;;;;;;2.55;1.83;;;15.40;57.80;;;;;;4953182;28;20249;-59
2021/09/02 02:06:56;;;;;;;2.58;1.70;;;15.40;57.80;;;;;;4954115;28;20238;-52
2021/09/02 02:09:28;;;;;;;2.25;1.73;;;15.50;57.90;;;;;;4953696;28;20250;-56
2021/09/02 02:11:59;;;;;;;2.85;1.80;;;15.50;57.90;;;;;;4953814;28;20238;-55
2021/09/02 02:14:29;;;;;;;3.45;1.90;;;15.50;57.90;;;;;;4953953;28;20282;-53
2021/09/02 02:17:00;;;;;;;2.92;1.73;;;15.50;57.80;;;;;;4970332;23;20290;-56
2021/09/02 02:19:30;;;;;;;3.22;1.95;;;15.50;57.90;;;;;;4991947;28;20300;-56
2021/09/02 02:22:00;;;;;;;1.98;1.77;;;15.60;57.90;;;;;;4991425;28;20316;-45
2021/09/02 02:24:33;;;;;;;2.70;1.98;;;15.60;57.80;;;;;;4991754;28;20233;-46
2021/09/02 02:27:03;;;;;;;3.70;1.85;;;15.60;57.80;;;;;;4990864;28;20439;-44
2021/09/02 02:29:34;;;;;;;2.13;1.65;;;15.60;57.70;;;;;;4991208;28;20245;-47
2021/09/02 02:32:04;;;;;;;2.03;1.70;;;15.60;57.70;;;;;;4992228;28;20635;-42
2021/09/02 02:34:34;;;;;;;2.28;1.73;;;15.60;57.70;;;;;;4991728;28;20260;-53
2021/09/02 02:37:05;;;;;;;2.78;1.75;;;15.60;57.60;;;;;;4991584;28;20560;-46
2021/09/02 02:39:38;;;;;;;2.17;1.58;;;15.70;57.60;;;;;;4991139;28;20271;-56
2021/09/02 02:42:09;;;;;;;1.98;1.65;;;15.70;57.70;;;;;;4991447;28;20225;-51
2021/09/02 02:44:40;;;;;;;2.67;2.08;;;15.70;57.70;;;;;;4991897;28;20224;-57
2021/09/02 02:47:10;;;;;;;2.15;1.75;;;15.80;57.80;;;;;;4991227;28;20201;-40
2021/09/02 02:49:41;;;;;;;2.40;1.60;;;15.80;57.80;;;;;;4991494;28;20257;-50
2021/09/02 02:52:11;;;;;;;2.25;1.83;;;15.80;57.70;;;;;;4991182;28;20233;-59
2021/09/02 02:54:44;;;;;;;2.20;1.58;;;15.80;57.70;;;;;;4991218;28;20233;-55
2021/09/02 02:57:14;;;;;;;3.10;1.83;;;15.80;57.70;;;;;;4990556;28;20292;-45
2021/09/02 02:59:44;;;;;;;2.90;1.90;;;15.80;57.70;;;;;;4991651;28;20253;-50
2021/09/02 03:02:15;;;;;;;2.10;1.77;;;15.80;57.70;;;;;;4991539;28;20312;-46
2021/09/02 03:04:45;;;;;;;1.67;1.38;;;15.90;57.70;;;;;;4991481;28;20233;-53
2021/09/02 03:07:16;;;;;;;3.58;1.60;;;15.90;57.70;;;;;;4991628;28;20643;-49
2021/09/02 03:09:48;;;;;;;2.67;1.73;;;15.90;57.60;;;;;;4991608;28;20728;-47
2021/09/02 03:12:18;;;;;;;2.20;1.50;;;15.90;57.60;;;;;;4992272;28;20680;-58
2021/09/02 03:14:49;;;;;;;2.17;1.40;;;16.00;57.50;;;;;;4991750;28;20244;-52
2021/09/02 03:17:19;;;;;;;2.05;1.52;;;16.00;57.50;;;;;;5012655;22;20354;-53
2021/09/02 03:19:50;;;;;;;2.53;1.80;;;16.00;57.50;;;;;;5014591;28;20255;-56
2021/09/02 03:22:20;;;;;;;2.25;1.55;;;16.00;57.50;;;;;;5014445;28;20316;-47
2021/09/02 03:24:52;;;;;;;3.08;1.75;;;16.00;57.40;;;;;;5012508;28;20228;-45
2021/09/02 03:27:23;;;;;;;2.58;1.55;;;16.00;57.40;;;;;;5014382;28;20236;-48
2021/09/02 03:29:53;;;;;;;1.90;1.70;;;16.10;57.40;;;;;;5014824;28;20216;-55
2021/09/02 03:32:24;;;;;;;2.22;1.60;;;16.10;57.50;;;;;;5014270;28;20735;-49
2021/09/02 03:34:54;;;;;;;1.90;1.40;;;16.10;57.40;;;;;;5014455;28;20626;-45
2021/09/02 03:37:25;;;;;;;2.58;1.63;;;16.20;57.50;;;;;;5014094;28;20236;-45
2021/09/02 03:39:57;;;;;;;2.72;1.73;;;16.20;57.50;;;;;;5012333;28;20248;-45
2021/09/02 03:42:27;;;;;;;3.15;1.63;;;16.20;57.40;;;;;;5014557;28;20318;-48
2021/09/02 03:44:58;;;;;;;2.17;1.70;;;16.20;57.40;;;;;;5014031;28;20239;-45
2021/09/02 03:47:28;;;;;;;2.42;1.73;;;16.30;57.50;;;;;;5013247;28;20468;-48
2021/09/02 03:49:59;;;;;;;2.78;1.75;;;16.30;57.50;;;;;;5013889;28;20640;-44
2021/09/02 03:52:29;;;;;;;2.72;1.73;;;16.30;57.50;;;;;;5013482;28;20688;-48
2021/09/02 03:55:02;;;;;;;1.85;1.48;;;16.30;57.40;;;;;;5013572;28;20231;-48
2021/09/02 03:57:32;;;;;;;1.73;1.50;;;16.40;57.40;;;;;;5014568;28;20294;-45
2021/09/02 04:00:03;;;;;;;2.28;1.55;;;16.50;57.40;;;;;;5013223;28;20221;-46
2021/09/02 04:02:34;;;;;;;2.60;1.60;;;16.50;57.30;;;;;;5013953;28;20580;-51
2021/09/02 04:05:04;;;;;;;1.73;1.52;;;16.50;57.20;;;;;;5013793;28;20232;-49
2021/09/02 04:07:34;;;;;;;1.42;1.30;;;16.50;57.20;;;;;;5013799;28;20188;-59
2021/09/02 04:10:07;;;;;;;2.80;1.70;;;16.50;57.10;;;;;;5012185;28;20217;-45
2021/09/02 04:12:37;;;;;;;1.80;1.50;;;16.50;57.10;;;;;;5012558;28;20185;-45
2021/09/02 04:15:09;;;;;;;3.13;1.77;;;16.60;57.10;;;;;;5013127;28;20228;-46
2021/09/02 04:17:39;;;;;;;1.65;1.50;;;16.60;57.10;;;;;;5018570;23;20225;-49
2021/09/02 04:20:10;;;;;;;2.60;1.55;;;16.60;57.10;;;;;;4974034;28;20238;-48
2021/09/02 04:22:40;;;;;;;2.22;1.67;;;16.60;57.00;;;;;;4974123;28;20257;-52
2021/09/02 04:25:13;;;;;;;1.88;1.60;;;16.60;57.00;;;;;;4974246;28;20225;-49
2021/09/02 04:27:44;;;;;;;2.17;1.60;;;16.70;57.10;;;;;;4973572;28;20230;-45
2021/09/02 04:30:15;;;;;;;2.53;1.55;;;16.70;57.00;;;;;;4973797;28;20292;-46
2021/09/02 04:32:45;;;;;;;2.75;1.77;;;16.70;57.00;;;;;;4973860;28;21088;-49
2021/09/02 04:35:16;;;;;;;2.30;1.70;;;16.70;57.00;;;;;;4974655;28;20230;-49
2021/09/02 04:37:47;;;;;;;2.47;1.40;;;16.70;56.90;;;;;;4974336;28;20501;-45
2021/09/02 04:40:20;;;;;;;2.28;1.50;;;16.70;56.90;;;;;;4973793;28;20229;-57
2021/09/02 04:42:50;;;;;;;2.55;1.90;;;16.70;56.90;;;;;;4974284;28;20272;-51
2021/09/02 04:45:21;;;;;;;2.75;1.77;;;16.70;56.90;;;;;;4979309;28;20232;-53
2021/09/02 04:47:51;;;;;;;2.25;1.73;;;16.70;56.90;;;;;;4985351;28;20241;-56
2021/09/02 04:50:22;;;;;;;2.55;1.42;;;16.80;56.90;;;;;;4972279;28;20217;-54
2021/09/02 04:52:52;;;;;;;1.88;1.58;;;16.80;56.90;;;;;;4974167;28;20198;-43
2021/09/02 04:55:25;;;;;;;2.63;1.75;;;16.80;57.50;;;;;;4973288;28;20230;-45
2021/09/02 04:57:56;;;;;;;2.42;1.60;;;16.80;56.90;;;;;;4974088;28;20281;-57
2021/09/02 05:00:26;;;;;;;2.85;1.60;;;16.80;56.80;;;;;;4972506;28;20225;-57
2021/09/02 05:02:57;;;;;;;2.17;1.50;;;16.80;56.80;;;;;;4973071;28;20312;-49
2021/09/02 05:05:27;;;;;;;1.92;1.40;;;16.80;56.80;;;;;;4973462;28;20291;-57
2021/09/02 05:07:57;;;;;;;2.67;1.70;;;16.80;56.80;;;;;;4973383;28;20225;-58
2021/09/02 05:10:30;;;;;;;1.58;1.38;;;16.90;56.70;;;;;;4974115;28;20233;-54
2021/09/02 05:13:00;;;;;;;2.58;1.83;;;16.90;56.70;;;;;;4973742;28;20221;-47
2021/09/02 05:15:31;;;;;;;2.47;1.77;;;16.90;56.70;;;;;;4974398;28;20289;-58
2021/09/02 05:18:01;;;;;;;2.92;1.70;;;16.90;56.70;;;;;;4994876;22;20248;-46
2021/09/02 05:20:31;;;;;;;3.28;1.52;;;16.90;56.70;;;;;;4992775;28;20276;-56
2021/09/02 05:23:02;;;;;;;2.08;1.48;;;17.00;56.70;;;;;;4992996;28;20264;-51
2021/09/02 05:25:34;;;;;;;2.05;1.85;;;17.00;56.70;;;;;;4993433;28;20229;-49
2021/09/02 05:28:05;;;;;;;2.28;1.70;;;17.00;56.60;;;;;;4993070;28;20317;-52
2021/09/02 05:30:35;;;;;;;2.25;1.70;;;17.00;56.60;;;;;;4992917;28;20186;-52
2021/09/02 05:33:06;;;;;;;1.88;1.48;;;17.00;56.60;;;;;;4992686;28;20209;-53
2021/09/02 05:35:36;;;;;;;2.47;1.80;;;17.00;56.50;;;;;;4992100;28;20248;-52
2021/09/02 05:38:07;;;;;;;2.72;1.67;;;17.00;56.40;;;;;;4992149;28;20260;-50
2021/09/02 05:40:39;;;;;;;2.55;1.70;;;17.00;56.50;;;;;;4991608;28;20233;-50
2021/09/02 05:43:09;;;;;;;2.60;1.85;;;17.00;56.40;;;;;;4977808;28;20265;-51
2021/09/02 05:45:40;;;;;;;2.60;1.50;;;17.00;56.40;;;;;;4973116;28;20249;-53
2021/09/02 05:48:10;;;;;;;1.83;1.60;;;17.00;56.40;;;;;;4972976;28;20378;-44
2021/09/02 05:50:41;;;;;;;4.22;2.03;;;17.00;56.50;;;;;;4973267;28;20198;-46
2021/09/02 05:53:11;;;;;;;2.08;1.60;;;17.00;56.40;;;;;;4972900;28;20233;-49
2021/09/02 05:55:44;;;;;;;4.03;1.80;;;17.00;56.40;;;;;;4973181;28;20198;-45
2021/09/02 05:58:14;;;;;;;3.22;1.88;;;17.00;56.40;;;;;;4973319;28;20308;-45
2021/09/02 06:00:44;;;;;;;1.67;1.58;;;17.00;56.40;;;;;;4981590;28;20240;-49
2021/09/02 06:03:15;;;;;;;2.42;1.80;;;16.90;56.30;;;;;;4992271;28;20260;-45
2021/09/02 06:05:45;;;;;;;2.00;1.90;;;17.00;56.90;;;;;;4992267;28;20217;-46
2021/09/02 06:08:16;;;;;;;3.55;1.60;;;16.90;56.20;;;;;;4992301;28;20272;-49
2021/09/02 06:10:49;;;;;;;1.80;1.60;;;17.00;56.20;;;;;;4992332;28;20206;-49
2021/09/02 06:13:19;;;;;;;3.90;1.67;;;16.90;56.20;;;;;;4992606;28;20197;-46
2021/09/02 06:15:50;;;;;;;2.72;2.28;;;16.90;56.10;;;;;;4992406;28;20287;-46
2021/09/02 06:18:20;;;;;;;2.20;1.80;;;16.90;56.10;;;;;;5013966;23;20303;-60
2021/09/02 06:20:50;;;;;;;2.67;1.70;;;16.90;56.20;;;;;;5011852;28;20235;-61
2021/09/02 06:23:21;;;;;;;2.67;2.08;;;16.90;56.20;;;;;;5011735;28;20314;-51
2021/09/02 06:25:53;;;;;;;5.38;3.63;;;16.90;56.20;;;;;;5011885;28;20231;-55
2021/09/02 06:28:24;;;;;;;8.50;5.25;;;16.90;56.20;;;;;;5011648;28;20212;-44
2021/09/02 06:30:54;;;;;;;5.60;3.67;;;16.90;56.30;;;;;;5009192;28;20221;-46
2021/09/02 06:33:24;;;;;;;6.45;3.78;;;16.80;56.20;;;;;;5011217;28;20292;-49
2021/09/02 06:35:55;;;;;;;5.82;4.30;;;16.90;56.30;;;;;;5009765;28;20228;-57
2021/09/02 06:38:25;;;;;;;7.15;4.80;;;16.80;56.20;;;;;;5011180;28;20271;-51
2021/09/02 06:40:58;;;;;;;7.35;4.82;;;16.80;56.20;;;;;;5010162;28;20236;-56
2021/09/02 06:43:28;;;;;;;7.28;4.85;;;16.80;56.20;;;;;;5010102;28;20308;-59
2021/09/02 06:45:58;;;;;;;5.60;4.57;;;16.80;56.20;;;;;;5010488;28;20232;-52
2021/09/02 06:48:29;;;;;;;6.80;4.70;;;16.80;56.10;;;;;;5010476;28;20637;-57
2021/09/02 06:50:59;;;;;;;6.75;4.95;;;16.70;56.10;;;;;;5009796;28;20847;-61
2021/09/02 06:53:30;;;;;;;7.10;3.83;;;16.70;56.10;;;;;;5010563;28;20628;-50
2021/09/02 06:56:02;;;;;;;6.70;4.60;;;16.70;56.10;;;;;;5011021;28;20236;-51
2021/09/02 06:58:32;;;;;;;5.88;4.25;;;16.70;56.10;;;;;;5010286;28;20724;-45
2021/09/02 07:01:03;;;;;;;5.70;4.63;;;16.70;56.10;;;;;;5010769;28;20232;-48
2021/09/02 07:03:33;;;;;;;6.50;4.60;;;16.70;56.10;;;;;;5009911;28;20319;-54
2021/09/02 07:06:04;;;;;;;8.77;5.70;;;16.60;56.00;;;;;;5014354;28;20242;-51
2021/09/02 07:08:36;;;;;;;7.35;5.00;;;16.60;56.00;;;;;;5010347;28;20267;-52
2021/09/02 07:11:08;;;;;;;6.18;4.95;;;16.60;56.00;;;;;;5010667;28;20283;-61
2021/09/02 07:13:39;;;;;;;7.00;4.70;;;16.60;56.00;;;;;;5010357;28;20220;-47
2021/09/02 07:16:09;;;;;;;6.32;5.00;;;16.60;56.00;;;;;;5010441;28;20301;-55
2021/09/02 07:18:40;;;;;;;6.75;4.93;;;16.60;56.00;;;;;;5023242;22;20252;-55
2021/09/02 07:21:10;;;;;;;6.07;4.85;;;16.50;55.90;;;;;;5009633;28;20197;-56
2021/09/02 07:23:41;;;;;;;6.32;4.40;;;16.60;56.00;;;;;;5011718;28;20266;-57
2021/09/02 07:26:14;;;;;;;6.68;4.70;;;16.50;56.00;;;;;;5022296;28;20289;-58
2021/09/02 07:28:44;;;;;;;6.57;5.20;;;16.50;56.00;;;;;;5030314;28;20299;-57
2021/09/02 07:31:15;;;;;;;6.22;4.88;;;16.50;56.10;;;;;;5030422;28;20286;-58
2021/09/02 07:33:45;;;;;;;7.63;4.43;;;16.50;56.10;;;;;;5030277;28;20607;-52
2021/09/02 07:36:16;;;;;;;8.45;4.70;;;16.50;56.10;;;;;;5012127;28;20656;-58
2021/09/02 07:38:46;;;;;;;13.25;5.18;;;16.50;56.10;;;;;;5010771;28;20275;-58
2021/09/02 07:41:18;;;;;;;9.15;4.45;;;16.50;56.10;;;;;;5010625;28;20925;-54
2021/09/02 07:43:49;;;;;;;6.57;4.82;;;16.40;56.10;;;;;;5010834;28;20804;-58
2021/09/02 07:46:19;;;;;;;9.80;5.15;;;16.40;56.10;;;;;;5010737;28;20243;-55
2021/09/02 07:48:49;;;;;;;7.35;4.75;;;16.40;56.10;;;;;;5010578;28;20439;-58
2021/09/02 07:51:20;;;;;;;10.25;4.97;;;16.40;56.10;;;;;;5010831;28;20236;-55
2021/09/02 07:53:50;;;;;;;7.78;4.93;;;16.40;56.10;;;;;;5010951;28;20288;-54
2021/09/02 07:56:23;;;;;;;8.25;4.45;;;16.40;56.10;;;;;;5009960;28;20262;-58
2021/09/02 07:58:53;;;;;;;7.68;4.43;;;16.30;56.60;;;;;;5010325;28;20259;-58
2021/09/02 08:01:24;;;;;;;8.80;4.57;;;16.30;56.10;;;;;;5011457;28;20235;-52
2021/09/02 08:03:55;;;;;;;11.35;5.50;;;16.30;56.10;;;;;;5013613;28;20213;-58
2021/09/02 08:06:25;;;;;;;5.70;4.07;;;16.30;56.10;;;;;;5013278;28;20599;-54
2021/09/02 08:08:55;;;;;;;9.00;4.43;;;16.30;56.10;;;;;;5013270;28;20747;-58
2021/09/02 08:11:28;;;;;;;10.65;4.22;;;16.20;56.00;;;;;;5013654;28;20228;-58
2021/09/02 08:13:59;;;;;;;6.90;4.20;;;16.20;56.00;;;;;;5013904;28;20223;-58
2021/09/02 08:16:29;;;;;;;6.53;3.78;;;16.20;56.00;;;;;;5013800;28;20232;-58
2021/09/02 08:19:00;;;;;;;5.75;3.97;;;16.10;56.00;;;;;;5025240;22;20347;-53
2021/09/02 08:21:30;;;;;;;8.25;4.60;;;16.10;56.10;;;;;;5013355;28;20548;-46
2021/09/02 08:24:00;;;;;;;6.43;4.72;;;16.10;56.00;;;;;;5013585;28;20287;-48
2021/09/02 08:26:33;;;;;;;6.78;4.32;;;16.10;56.10;;;;;;5014005;28;20259;-47
2021/09/02 08:29:04;;;;;;;6.60;4.32;;;16.10;56.10;;;;;;5014137;28;20221;-46
2021/09/02 08:31:34;;;;;;;6.50;4.10;;;16.10;56.10;;;;;;5013794;28;20310;-49
2021/09/02 08:34:05;;;;;;;6.55;3.63;;;16.00;56.10;;;;;;5013607;28;20232;-46
2021/09/02 08:36:35;;;;;;;4.90;4.07;;;16.00;56.10;;;;;;5013333;28;20205;-50
2021/09/02 08:39:06;;;;;;;8.30;4.10;;;16.00;56.10;;;;;;5013418;28;20264;-46
2021/09/02 08:41:39;;;;;;;6.10;3.92;;;16.00;56.10;;;;;;5013007;28;20680;-48
2021/09/02 08:44:09;;;;;;;6.72;4.35;;;16.00;56.10;;;;;;5013206;28;20316;-49
2021/09/02 08:46:40;;;;;;;5.68;3.97;;;16.00;56.10;;;;;;5013681;28;20197;-51
2021/09/02 08:49:10;;;;;;;6.15;3.90;;;15.90;56.00;;;;;;5013688;28;20308;-46
2021/09/02 08:51:41;;;;;;;6.15;3.95;;;15.90;56.10;;;;;;5013527;28;20279;-47
2021/09/02 08:54:11;;;;;;;9.52;4.20;;;15.90;56.10;;;;;;5013423;28;20224;-54
2021/09/02 08:56:43;;;;;;;5.18;3.97;;;15.90;56.10;;;;;;5012756;28;20228;-53
2021/09/02 08:59:14;;;;;;;6.40;4.32;;;15.90;56.10;;;;;;5013222;28;20263;-54
2021/09/02 09:01:45;;;;;;;5.18;3.78;;;15.90;56.10;;;;;;5012997;28;20602;-57
2021/09/02 09:04:16;;;;;;;6.10;3.92;;;15.80;56.20;;;;;;5012348;28;20282;-54
2021/09/02 09:06:46;;;;;;;4.60;3.58;;;15.80;56.20;;;;;;5012622;28;20232;-50
2021/09/02 09:09:17;;;;;;;4.38;3.70;;;15.80;56.20;;;;;;5012629;28;20689;-57
2021/09/02 09:11:49;;;;;;;4.97;3.45;;;15.80;56.20;;;;;;5012116;28;20233;-51
2021/09/02 09:14:24;;;;;;;5.53;4.10;;;15.70;56.80;;;;;;5011319;28;20271;-51
2021/09/02 09:16:59;;;;;;;5.28;3.80;;;15.70;56.20;;;;;;5012561;28;20203;-50
2021/09/02 09:19:43;;;;;;;6.45;3.90;;;15.70;56.20;;;;;;5012456;28;20255;-45
2021/09/02 09:22:14;;;;;;;4.88;3.55;;;15.70;56.20;;;;;;5012579;28;20197;-52
2021/09/02 09:24:46;;;;;;;4.75;3.60;;;15.70;56.20;;;;;;5012244;28;20231;-51
2021/09/02 09:27:19;;;;;;;5.70;4.00;;;15.70;56.20;;;;;;5012669;28;20247;-54
2021/09/02 09:30:03;;;;;;;4.25;3.80;;;15.60;56.30;;;;;;5011415;28;20225;-51
2021/09/02 09:32:38;;;;;;;4.53;3.25;;;15.60;56.60;;;;;;5012536;28;20200;-47
2021/09/02 09:35:09;;;;;;;4.85;3.47;;;15.60;56.70;;;;;;5012529;28;20196;-47
2021/09/02 09:37:40;;;;;;;4.90;3.45;;;15.60;56.60;;;;;;5012569;28;20227;-48
2021/09/02 09:40:17;;;;;;;4.93;3.15;;;15.60;56.60;;;;;;5009747;28;20197;-47
2021/09/02 09:43:06;;;;;;;7.95;3.50;;;15.60;56.70;;;;;;5011249;28;20612;-47
2021/09/02 09:45:44;;;;;;;4.30;3.60;;;15.60;56.70;;;;;;5011343;28;20232;-49
2021/09/02 09:48:33;;;;;;;4.93;3.55;;;15.60;56.70;;;;;;5011458;28;20651;-48
2021/09/02 09:51:11;;;;;;;6.65;3.50;;;15.50;56.70;;;;;;5011922;28;20224;-50
2021/09/02 09:53:42;;;;;;;7.35;3.58;;;15.50;56.70;;;;;;5011623;28;20470;-50
2021/09/02 09:56:12;;;;;;;4.43;3.20;;;15.50;56.60;;;;;;5010849;28;20251;-51
2021/09/02 09:58:44;;;;;;;3.58;3.20;;;15.50;56.60;;;;;;5011772;28;20259;-46
2021/09/02 10:01:15;;;;;;;4.97;3.40;;;15.50;56.60;;;;;;5010744;28;20288;-48
2021/09/02 10:03:45;;;;;;;5.70;3.38;;;15.40;56.60;;;;;;5010658;28;20307;-47
2021/09/02 10:06:16;;;;;;;5.20;3.05;;;15.50;56.60;;;;;;5011071;28;20203;-46
2021/09/02 10:08:46;;;;;;;5.75;3.60;;;15.40;56.50;;;;;;5011608;28;20256;-46
2021/09/02 10:11:18;;;;;;;3.83;3.17;;;15.40;56.50;;;;;;5010882;28;20739;-49
2021/09/02 10:13:50;;;;;;;5.00;3.40;;;15.40;56.50;;;;;;5011862;28;20292;-47
2021/09/02 10:16:22;;;;;;;7.50;3.55;;;15.40;56.50;;;;;;5011633;28;20254;-46
2021/09/02 10:18:53;;;;;;;12.32;3.70;;;15.40;56.50;;;;;;5010066;22;20233;-59
2021/09/02 10:21:23;;;;;;;13.43;4.32;;;15.40;56.60;;;;;;4992432;28;20229;-57
2021/09/02 10:23:54;;;;;;;12.27;3.47;;;15.30;56.50;;;;;;4989982;28;20265;-51
2021/09/02 10:26:34;;;;;;;12.02;4.43;;;15.30;56.50;;;;;;4990707;28;20237;-58
2021/09/02 10:29:09;;;;;;;6.35;3.53;;;15.30;56.50;;;;;;4990542;28;20712;-59
2021/09/02 10:31:39;;;;;;;6.13;3.67;;;15.30;56.50;;;;;;4990953;28;20236;-57
2021/09/02 10:34:13;;;;;;;7.28;3.40;;;15.20;56.50;;;;;;4992021;28;20197;-56
2021/09/02 10:36:45;;;;;;;5.68;3.15;;;15.20;56.40;;;;;;4991386;28;20201;-54
2021/09/02 10:39:15;;;;;;;8.82;3.28;;;15.20;56.50;;;;;;4990965;28;20229;-58
2021/09/02 10:41:51;;;;;;;4.82;3.13;;;15.20;56.50;;;;;;4990443;28;20233;-55
2021/09/02 10:44:27;;;;;;;9.48;3.50;;;15.20;56.50;;;;;;4990791;28;20229;-58
2021/09/02 10:46:57;;;;;;;4.60;3.05;;;15.10;56.50;;;;;;4991011;28;20228;-58
2021/09/02 10:49:29;;;;;;;4.60;3.15;;;15.10;56.50;;;;;;4990355;28;20248;-56
2021/09/02 10:52:00;;;;;;;4.75;2.92;;;15.10;56.50;;;;;;4990740;28;20540;-58
2021/09/02 10:54:31;;;;;;;4.55;3.15;;;15.10;56.50;;;;;;4991309;28;20615;-50
2021/09/02 10:57:11;;;;;;;5.80;2.78;;;15.10;56.50;;;;;;4991246;28;20204;-58
2021/09/02 10:59:51;;;;;;;5.68;3.15;;;15.00;56.40;;;;;;4990326;28;20752;-57
2021/09/02 11:02:45;;;;;;;5.05;3.13;;;15.00;56.50;;;;;;4990589;28;20225;-54
2021/09/02 11:05:18;;;;;;;5.18;2.75;;;15.00;56.50;;;;;;4991570;28;20225;-58
2021/09/02 11:07:49;;;;;;;4.57;3.00;;;15.00;56.50;;;;;;4989829;28;20229;-58
2021/09/02 11:10:21;;;;;;;8.57;3.20;;;15.00;56.50;;;;;;4991101;28;20721;-57
2021/09/02 11:12:56;;;;;;;4.82;2.88;;;14.90;56.40;;;;;;4989772;28;20599;-51
2021/09/02 11:15:28;;;;;;;4.53;2.97;;;14.90;56.40;;;;;;4990859;28;20233;-49
2021/09/02 11:17:59;;;;;;;4.47;2.92;;;14.90;56.40;;;;;;5008526;22;20351;-54
2021/09/02 11:20:30;;;;;;;4.88;3.00;;;14.90;56.50;;;;;;5010261;28;20236;-59
2021/09/02 11:23:14;;;;;;;4.15;2.90;;;14.90;56.40;;;;;;5010294;28;20224;-54
2021/09/02 11:25:48;;;;;;;5.30;2.80;;;14.90;56.50;;;;;;5010267;28;20262;-48
2021/09/02 11:28:20;;;;;;;3.75;2.83;;;14.80;56.40;;;;;;5009763;28;20256;-46
2021/09/02 11:30:53;;;;;;;4.22;2.85;;;14.80;56.40;;;;;;5009745;28;20201;-46
2021/09/02 11:33:23;;;;;;;4.60;2.97;;;14.80;56.40;;;;;;5010398;28;20235;-45
2021/09/02 11:36:00;;;;;;;5.13;2.97;;;14.80;56.40;;;;;;5009901;28;20236;-52
2021/09/02 11:38:30;;;;;;;3.03;2.53;;;14.80;56.40;;;;;;5014313;28;20219;-50
2021/09/02 11:41:08;;;;;;;3.70;2.90;;;14.70;56.40;;;;;;5014707;28;20233;-47
2021/09/02 11:43:40;;;;;;;9.98;2.90;;;14.70;56.50;;;;;;5015248;28;20282;-47
2021/09/02 11:46:12;;;;;;;4.43;3.13;;;14.70;56.50;;;;;;5014377;28;20673;-45
2021/09/02 11:48:50;;;;;;;4.45;3.08;;;14.70;56.50;;;;;;5014282;28;20673;-47
2021/09/02 11:51:24;;;;;;;4.30;2.70;;;14.70;56.50;;;;;;5014001;28;20408;-45
2021/09/02 11:54:06;;;;;;;3.20;2.55;;;14.70;56.50;;;;;;5013920;28;20649;-48
2021/09/02 11:56:36;;;;;;;4.80;2.50;;;14.60;56.50;;;;;;5013936;28;20232;-45
2021/09/02 11:59:08;;;;;;;4.40;2.95;;;14.60;56.50;;;;;;5013698;28;20208;-46
2021/09/02 12:01:43;;;;;;;3.80;2.47;;;14.60;56.50;;;;;;5013985;28;20235;-46
2021/09/02 12:04:19;;;;;;;3.08;2.50;;;14.60;56.50;;;;;;5014524;28;20229;-45
2021/09/02 12:06:50;;;;;;;3.05;2.60;;;14.60;56.50;;;;;;5014456;28;20251;-47
2021/09/02 12:09:22;;;;;;;4.07;2.58;;;14.60;56.50;;;;;;5014336;28;20630;-46
2021/09/02 12:11:52;;;;;;;4.53;2.58;;;14.50;56.40;;;;;;5014254;28;20224;-45
2021/09/02 12:14:23;;;;;;;3.97;2.50;;;14.50;56.50;;;;;;5014359;28;20236;-47
2021/09/02 12:19:55;;;;;;;4.35;2.60;;;14.50;56.50;;;;;;4995201;28;20222;-41
2021/09/02 12:22:28;;;;;;;3.90;2.70;;;14.50;56.50;;;;;;4994097;28;20292;-56
2021/09/02 12:25:08;;;;;;;4.60;2.75;;;14.50;56.50;;;;;;4994958;28;20319;-47
2021/09/02 12:27:47;;;;;;;4.95;2.50;;;14.50;56.50;;;;;;4994784;28;20280;-42
2021/09/02 12:30:18;;;;;;;3.75;2.40;;;14.40;56.50;;;;;;4994505;28;20280;-56
2021/09/02 12:32:50;;;;;;;3.67;2.60;;;14.40;56.50;;;;;;4994512;28;20734;-42
2021/09/02 12:35:21;;;;;;;3.72;2.70;;;14.40;56.60;;;;;;4994178;28;20669;-42
2021/09/02 12:37:51;;;;;;;4.50;2.67;;;14.40;56.50;;;;;;4994266;28;20252;-42
2021/09/02 12:40:22;;;;;;;3.13;2.25;;;14.40;56.50;;;;;;4994679;28;20240;-39
2021/09/02 12:42:52;;;;;;;4.00;2.90;;;14.40;56.60;;;;;;4994381;28;20284;-59
2021/09/02 12:45:27;;;;;;;2.90;2.40;;;14.30;56.50;;;;;;4994285;28;20317;-40
2021/09/02 12:48:04;;;;;;;3.83;2.67;;;14.40;57.20;;;;;;4993941;28;20280;-45
2021/09/02 12:50:34;;;;;;;3.72;2.53;;;14.30;56.60;;;;;;4993592;28;20232;-41
2021/09/02 12:53:11;;;;;;;3.10;2.50;;;14.30;56.50;;;;;;4993654;28;20232;-50
2021/09/02 12:55:41;;;;;;;3.78;2.47;;;14.30;56.50;;;;;;4994399;28;20243;-39
2021/09/02 12:58:12;;;;;;;2.90;2.50;;;14.30;56.50;;;;;;4993768;28;20261;-50
2021/09/02 13:00:42;;;;;;;4.18;2.33;;;14.30;56.50;;;;;;4994031;28;20256;-49
2021/09/02 13:03:16;;;;;;;3.25;2.63;;;14.30;56.50;;;;;;4993801;28;20289;-39
2021/09/02 13:05:48;;;;;;;2.92;2.42;;;14.30;56.50;;;;;;4993870;28;20215;-41
2021/09/02 13:08:19;;;;;;;3.40;2.40;;;14.30;56.50;;;;;;4993410;28;20221;-39
2021/09/02 13:10:50;;;;;;;3.65;2.50;;;14.20;56.40;;;;;;4994124;28;20320;-47
2021/09/02 13:13:20;;;;;;;2.50;2.13;;;14.20;56.40;;;;;;4994122;28;20236;-47